Panama City, FL (32411)

11:07 AM CST on March 05, 2015 (GMT -0600)
No Worries Condos | Change Station
CLOSE
Current Station
Personal Weather Station
Location: Panama City, FL
Elevation: 23 ft
Nearby Weather Stations

Elev 23 ft 30.14 °N, 85.75 °W | Updated 0 second ago

Overcast
Overcast
68.5 °F
Feels Like 68.5 °F
N
8.0
Wind Variable Wind from SW
Gusts 9.0 mph

Today
High -- | Low -- °F
--% Chance of Precip.
Yesterday
High -- | Low -- °F
Precip. -- in
6:04 AM 5:44 PM
Full, 100% visible
Pressure 30.05 in
Visibility 10.0 miles
Clouds Few 500 ft
Scattered Clouds 9000 ft
Mostly Cloudy 20000 ft
Dew Point 68 °F
Humidity 99%
Rainfall in
Snow Depth Not available.
UV 5 out of 12
Pollen 8.20 out of 12
Air Quality Not available.
Flu Activity Not available.
METAR KPAM 051701Z 19012KT 10SM FEW005 SCT090 BKN200 23/21 A3005 RMK AO2A $

More Conditions Fewer Conditions

Pressure 30.05 in
Visibility 10.0 miles
Clouds Few 500 ft
Scattered Clouds 9000 ft
Mostly Cloudy 20000 ft
Dew Point 68 °F
Humidity 99%
Rainfall in
Snow Depth Not available.
UV 5 out of 12
Pollen 8.20 out of 12
Air Quality Not available.
Flu Activity Not available.
METAR KPAM 051701Z 19012KT 10SM FEW005 SCT090 BKN200 23/21 A3005 RMK AO2A $

More Conditions Fewer Conditions

10-Day Weather Forecast

Almanac

Astronomy

Mar. 05, 2015 Rise Set
Actual Time
Civil Twilight
Nautical Twilight
Astronomical Twilight
Moon
Length of Visible Light
Length of Day
Tomorrow will be .
, % of the Moon is Illuminated

Today's Extremes

State Highs State Lows

Community

WunderPhotos

Upload Photos

1,802,861 photos uploaded!

WunderBlogs® & News

Nearby

Air Quality

  Air Quality AQ Index Pollutant
Not available.

Snow Depth

Station Depth Elevation

Earthquake Activity

City Distance Mag. Time & Date
Minimum magnitude displayed is 2.5.

Coastal Water Temperatures

Place Temperature

Nearby Weather Stations